Time;durP1;ratioP1;P1;durP2;ratioP2;P2;SDS_P1;SDS_P2;PMS_P1;PMS_P2;Temp;Humidity;BMP_temperature;BMP_pressure;BME280_temperature;BME280_humidity;BME280_pressure;Samples;Min_cycle;Max_cycle;Signal;HPM_P1;HPM_P2
2024/04/13 00:02:00;;;;;;;5.63;2.90;;;;;;;;;;5487363;26;20239;-78
2024/04/13 00:04:29;;;;;;;4.93;3.17;;;;;;;;;;5486917;26;20239;-79
2024/04/13 00:06:55;;;;;;;5.10;3.20;;;;;;;;;;5488079;26;20265;-78
2024/04/13 00:09:24;;;;;;;3.60;2.93;;;;;;;;;;5488466;26;20235;-79
2024/04/13 00:11:50;;;;;;;5.57;2.93;;;;;;;;;;5487622;26;20768;-79
2024/04/13 00:14:19;;;;;;;6.23;2.90;;;;;;;;;;5466487;26;20240;-79
2024/04/13 00:16:45;;;;;;;3.50;3.20;;;;;;;;;;5486236;26;20231;-78
2024/04/13 00:19:17;;;;;;;4.60;2.70;;;;;;;;;;5488158;26;20247;-78
2024/04/13 00:21:43;;;;;;;4.50;3.00;;;;;;;;;;5487844;26;20231;-79
2024/04/13 00:24:14;;;;;;;6.07;2.70;;;;;;;;;;5487143;26;20239;-79
2024/04/13 00:26:40;;;;;;;5.13;2.70;;;;;;;;;;5487821;26;20720;-79
2024/04/13 00:29:09;;;;;;;4.37;2.67;;;;;;;;;;5487350;26;20281;-79
2024/04/13 00:31:35;;;;;;;4.20;2.90;;;;;;;;;;5487058;26;20231;-79
2024/04/13 00:34:04;;;;;;;5.47;3.00;;;;;;;;;;5487022;26;20247;-78
2024/04/13 00:36:35;;;;;;;3.80;2.93;;;;;;;;;;5487271;26;20235;-78
2024/04/13 00:39:05;;;;;;;5.57;3.33;;;;;;;;;;5487489;26;20274;-79
2024/04/13 00:41:31;;;;;;;4.80;3.50;;;;;;;;;;5486324;26;20372;-80
2024/04/13 00:44:00;;;;;;;6.20;3.10;;;;;;;;;;5487310;26;20235;-79
2024/04/13 00:46:31;;;;;;;5.37;3.13;;;;;;;;;;5487327;26;20230;-79
2024/04/13 00:49:10;;;;;;;3.90;3.13;;;;;;;;;;5487345;26;20792;-78
2024/04/13 00:51:41;;;;;;;4.00;2.80;;;;;;;;;;5487564;26;20782;-79
2024/04/13 00:54:10;;;;;;;4.50;2.90;;;;;;;;;;5486870;26;20239;-79
2024/04/13 00:56:36;;;;;;;4.97;3.17;;;;;;;;;;5486961;26;20269;-77
2024/04/13 00:59:06;;;;;;;4.67;3.00;;;;;;;;;;5487035;26;20282;-79
2024/04/13 01:01:33;;;;;;;5.10;2.80;;;;;;;;;;5486918;26;20827;-79
2024/04/13 01:04:02;;;;;;;6.60;3.33;;;;;;;;;;5487620;26;20275;-79
2024/04/13 01:06:29;;;;;;;6.17;3.53;;;;;;;;;;5486774;26;20230;-79
2024/04/13 01:09:03;;;;;;;7.90;3.60;;;;;;;;;;5486365;26;20285;-79
2024/04/13 01:11:29;;;;;;;6.50;3.60;;;;;;;;;;5487240;26;20770;-78
2024/04/13 01:13:58;;;;;;;5.40;3.40;;;;;;;;;;5471004;26;20325;-78
2024/04/13 01:16:26;;;;;;;6.90;3.53;;;;;;;;;;5481001;26;20274;-78
2024/04/13 01:18:55;;;;;;;4.13;3.03;;;;;;;;;;5486750;26;20277;-79
2024/04/13 01:21:21;;;;;;;6.80;3.37;;;;;;;;;;5486035;26;20736;-79
2024/04/13 01:23:54;;;;;;;6.40;3.30;;;;;;;;;;5485879;26;20798;-79
2024/04/13 01:26:23;;;;;;;4.27;3.13;;;;;;;;;;5487013;26;20237;-78
2024/04/13 01:28:52;;;;;;;4.03;2.97;;;;;;;;;;5456332;26;20239;-78
2024/04/13 01:31:18;;;;;;;3.50;2.30;;;;;;;;;;5486189;26;20231;-79
2024/04/13 01:33:47;;;;;;;4.23;2.67;;;;;;;;;;5487203;26;20239;-78
2024/04/13 01:36:13;;;;;;;3.90;2.40;;;;;;;;;;5486575;26;20231;-79
2024/04/13 01:38:42;;;;;;;4.37;2.60;;;;;;;;;;5486370;26;20239;-79
2024/04/13 01:41:08;;;;;;;3.60;2.60;;;;;;;;;;5486264;26;20238;-79
2024/04/13 01:43:40;;;;;;;4.73;2.77;;;;;;;;;;5486734;26;20281;-78
2024/04/13 01:46:06;;;;;;;5.10;2.90;;;;;;;;;;5486199;26;20274;-79
2024/04/13 01:48:35;;;;;;;4.00;2.90;;;;;;;;;;5486118;26;20292;-78
2024/04/13 01:51:01;;;;;;;6.17;2.87;;;;;;;;;;5486226;26;20247;-79
2024/04/13 01:53:30;;;;;;;6.60;3.50;;;;;;;;;;5486031;26;20303;-79
2024/04/13 01:55:56;;;;;;;4.97;3.33;;;;;;;;;;5485350;26;20231;-79
2024/04/13 01:58:25;;;;;;;8.03;3.13;;;;;;;;;;5485854;26;20747;-78
2024/04/13 02:00:54;;;;;;;6.30;3.10;;;;;;;;;;5485755;26;20239;-79
2024/04/13 02:03:23;;;;;;;7.27;3.00;;;;;;;;;;5486223;26;20646;-79
2024/04/13 02:05:49;;;;;;;4.27;3.00;;;;;;;;;;5485157;26;20235;-79
2024/04/13 02:08:18;;;;;;;4.13;3.00;;;;;;;;;;5486292;26;20238;-78
2024/04/13 02:10:44;;;;;;;4.57;2.90;;;;;;;;;;5486227;26;20227;-77
2024/04/13 02:13:13;;;;;;;4.80;3.10;;;;;;;;;;5485564;26;20273;-79
2024/04/13 02:15:45;;;;;;;4.27;3.40;;;;;;;;;;5485976;26;20282;-79
2024/04/13 02:18:17;;;;;;;5.70;3.53;;;;;;;;;;5485664;26;20594;-79
2024/04/13 02:20:44;;;;;;;7.57;3.50;;;;;;;;;;5485525;26;20330;-78
2024/04/13 02:23:13;;;;;;;4.67;3.23;;;;;;;;;;5466638;26;20231;-79
2024/04/13 02:25:42;;;;;;;6.40;3.53;;;;;;;;;;5477453;26;20236;-78
2024/04/13 02:28:12;;;;;;;5.17;3.93;;;;;;;;;;5485713;26;20247;-79
2024/04/13 02:30:39;;;;;;;5.23;3.50;;;;;;;;;;5485317;26;20282;-78
2024/04/13 02:33:08;;;;;;;4.70;3.53;;;;;;;;;;5485272;26;20712;-79
2024/04/13 02:35:36;;;;;;;5.67;3.77;;;;;;;;;;5484942;26;20290;-79
2024/04/13 02:38:05;;;;;;;6.20;4.13;;;;;;;;;;5485653;26;20239;-78
2024/04/13 02:40:31;;;;;;;6.00;3.37;;;;;;;;;;5488108;26;20235;-78
2024/04/13 02:43:01;;;;;;;5.23;3.17;;;;;;;;;;5489188;26;20573;-79
2024/04/13 02:45:27;;;;;;;4.10;3.20;;;;;;;;;;5488909;26;20232;-79
2024/04/13 02:47:56;;;;;;;8.03;3.37;;;;;;;;;;5487996;26;20668;-79
2024/04/13 02:50:22;;;;;;;4.17;2.80;;;;;;;;;;5488311;26;20227;-79
2024/04/13 02:52:57;;;;;;;5.57;3.20;;;;;;;;;;5488953;26;20286;-78
2024/04/13 02:55:23;;;;;;;4.67;3.33;;;;;;;;;;5489423;26;20266;-79
2024/04/13 02:57:52;;;;;;;4.67;3.17;;;;;;;;;;5489541;26;20615;-79
2024/04/13 03:00:18;;;;;;;4.57;2.77;;;;;;;;;;5489395;26;20274;-79
2024/04/13 03:02:47;;;;;;;5.73;3.00;;;;;;;;;;5489649;26;20226;-78
2024/04/13 03:05:14;;;;;;;4.97;3.30;;;;;;;;;;5488760;26;20215;-78
2024/04/13 03:07:43;;;;;;;6.20;3.30;;;;;;;;;;5464333;26;20639;-79
2024/04/13 03:10:11;;;;;;;5.27;3.40;;;;;;;;;;5470714;26;20640;-79
2024/04/13 03:12:40;;;;;;;5.53;3.27;;;;;;;;;;5489253;26;20231;-78
2024/04/13 03:15:07;;;;;;;5.97;3.73;;;;;;;;;;5489484;26;20219;-79
2024/04/13 03:17:36;;;;;;;6.47;3.40;;;;;;;;;;5488952;26;20231;-79
2024/04/13 03:20:05;;;;;;;6.03;3.40;;;;;;;;;;5489190;26;20803;-79
2024/04/13 03:22:34;;;;;;;5.53;3.60;;;;;;;;;;5489177;26;20277;-78
2024/04/13 03:25:01;;;;;;;4.90;3.73;;;;;;;;;;5489381;26;20333;-79
2024/04/13 03:27:33;;;;;;;8.80;3.90;;;;;;;;;;5488833;26;20804;-78
2024/04/13 03:30:00;;;;;;;7.07;4.10;;;;;;;;;;5489666;26;20282;-79
2024/04/13 03:32:29;;;;;;;6.20;3.73;;;;;;;;;;5489286;26;20239;-78
2024/04/13 03:34:55;;;;;;;5.80;3.80;;;;;;;;;;5488949;26;20223;-78
2024/04/13 03:37:24;;;;;;;5.43;3.70;;;;;;;;;;5489324;26;20227;-79
2024/04/13 03:39:53;;;;;;;6.27;4.00;;;;;;;;;;5489196;26;20277;-78
2024/04/13 03:42:22;;;;;;;5.40;3.50;;;;;;;;;;5489189;26;20266;-78
2024/04/13 03:44:50;;;;;;;5.50;3.57;;;;;;;;;;5488443;26;20231;-78
2024/04/13 03:47:19;;;;;;;5.50;3.83;;;;;;;;;;5488101;26;20239;-79
2024/04/13 03:49:46;;;;;;;5.73;3.70;;;;;;;;;;5489059;26;20263;-79
2024/04/13 03:52:14;;;;;;;7.57;3.80;;;;;;;;;;5488664;26;20276;-79
2024/04/13 03:54:41;;;;;;;4.97;3.77;;;;;;;;;;5488744;26;20233;-79
2024/04/13 03:57:11;;;;;;;7.07;3.80;;;;;;;;;;5489176;26;20291;-79
2024/04/13 03:59:37;;;;;;;7.80;3.80;;;;;;;;;;5488535;26;20308;-79
2024/04/13 04:02:09;;;;;;;5.63;4.07;;;;;;;;;;5487734;26;20231;-78
2024/04/13 04:04:38;;;;;;;5.80;3.63;;;;;;;;;;5489218;26;20274;-79
2024/04/13 04:07:04;;;;;;;6.23;3.93;;;;;;;;;;5488885;26;20269;-79
2024/04/13 04:09:33;;;;;;;5.43;3.70;;;;;;;;;;5487883;26;20338;-79
2024/04/13 04:12:00;;;;;;;5.07;3.40;;;;;;;;;;5488078;26;20239;-79
2024/04/13 04:14:29;;;;;;;7.07;3.90;;;;;;;;;;5464573;26;20240;-79
2024/04/13 04:16:55;;;;;;;5.40;3.70;;;;;;;;;;5472631;26;20797;-79
2024/04/13 04:19:28;;;;;;;5.13;3.70;;;;;;;;;;5488852;26;20730;-79
2024/04/13 04:21:54;;;;;;;5.23;4.00;;;;;;;;;;5488626;26;20223;-79
2024/04/13 04:24:24;;;;;;;6.57;3.77;;;;;;;;;;5488114;26;20283;-79
2024/04/13 04:26:51;;;;;;;7.13;3.93;;;;;;;;;;5488044;26;20339;-78
2024/04/13 04:29:19;;;;;;;5.90;3.73;;;;;;;;;;5487511;26;20819;-77
2024/04/13 04:31:46;;;;;;;8.23;3.70;;;;;;;;;;5463143;26;20231;-79
2024/04/13 04:34:15;;;;;;;6.30;3.70;;;;;;;;;;5482917;26;20279;-78
2024/04/13 04:36:47;;;;;;;6.07;3.53;;;;;;;;;;5451797;26;20265;-79
2024/04/13 04:39:17;;;;;;;6.43;3.70;;;;;;;;;;5451565;26;20807;-78
2024/04/13 04:41:43;;;;;;;6.70;3.80;;;;;;;;;;5480857;26;20245;-79
2024/04/13 04:44:12;;;;;;;6.47;3.53;;;;;;;;;;5487932;26;20285;-79
2024/04/13 04:46:39;;;;;;;4.97;3.20;;;;;;;;;;5487307;26;20590;-79
2024/04/13 04:49:07;;;;;;;6.53;3.33;;;;;;;;;;5487850;26;20604;-78
2024/04/13 04:51:34;;;;;;;4.73;3.10;;;;;;;;;;5488552;26;20219;-79
2024/04/13 04:54:05;;;;;;;6.43;3.60;;;;;;;;;;5487477;26;20581;-79
2024/04/13 04:56:32;;;;;;;6.63;3.67;;;;;;;;;;5487413;26;20822;-79
2024/04/13 04:59:00;;;;;;;6.03;3.80;;;;;;;;;;5488613;26;20338;-79
2024/04/13 05:01:27;;;;;;;6.07;4.10;;;;;;;;;;5486522;26;20278;-79
2024/04/13 05:03:55;;;;;;;6.07;4.10;;;;;;;;;;5486770;26;20234;-78
2024/04/13 05:06:22;;;;;;;4.80;3.87;;;;;;;;;;5486312;26;20223;-79
2024/04/13 05:08:51;;;;;;;5.93;3.77;;;;;;;;;;5487147;26;20269;-79
2024/04/13 05:11:25;;;;;;;4.87;3.60;;;;;;;;;;5487801;26;20258;-79
2024/04/13 05:13:51;;;;;;;6.20;3.63;;;;;;;;;;5487076;26;20222;-79
2024/04/13 05:16:20;;;;;;;7.43;4.10;;;;;;;;;;5487431;26;20739;-79
2024/04/13 05:18:46;;;;;;;5.77;4.27;;;;;;;;;;5487780;26;20341;-79
2024/04/13 05:21:15;;;;;;;6.63;4.00;;;;;;;;;;5487276;26;20719;-78
2024/04/13 05:23:41;;;;;;;6.53;4.33;;;;;;;;;;5487002;26;20223;-78
2024/04/13 05:26:10;;;;;;;6.57;3.83;;;;;;;;;;5487135;26;20282;-78
2024/04/13 05:28:39;;;;;;;5.47;4.00;;;;;;;;;;5486932;26;20261;-79
2024/04/13 05:31:09;;;;;;;7.83;3.97;;;;;;;;;;5487553;26;20233;-79
2024/04/13 05:33:35;;;;;;;5.00;3.90;;;;;;;;;;5487788;26;20215;-78
2024/04/13 05:36:04;;;;;;;5.33;3.70;;;;;;;;;;5486259;26;20278;-79
2024/04/13 05:38:30;;;;;;;6.37;3.70;;;;;;;;;;5487266;26;20304;-79
2024/04/13 05:40:59;;;;;;;7.47;3.83;;;;;;;;;;5486119;26;20245;-78
2024/04/13 05:43:26;;;;;;;7.27;4.20;;;;;;;;;;5486870;26;20226;-78
2024/04/13 05:45:57;;;;;;;6.43;3.77;;;;;;;;;;5486551;26;20575;-79
2024/04/13 05:48:23;;;;;;;7.30;4.03;;;;;;;;;;5487530;26;20711;-78
2024/04/13 05:50:56;;;;;;;5.80;3.93;;;;;;;;;;5487309;26;20234;-78
2024/04/13 05:53:22;;;;;;;5.73;3.60;;;;;;;;;;5487086;26;20276;-78
2024/04/13 05:55:51;;;;;;;5.17;4.07;;;;;;;;;;5486882;26;20307;-79
2024/04/13 05:58:19;;;;;;;4.30;3.60;;;;;;;;;;5486789;26;20262;-78
2024/04/13 06:00:48;;;;;;;8.30;4.00;;;;;;;;;;5486480;26;20287;-77
2024/04/13 06:03:17;;;;;;;7.10;4.40;;;;;;;;;;5486917;26;20223;-79
2024/04/13 06:05:46;;;;;;;5.73;4.13;;;;;;;;;;5486396;26;20330;-79
2024/04/13 06:08:13;;;;;;;7.67;4.47;;;;;;;;;;5486827;26;20277;-79
2024/04/13 06:10:42;;;;;;;5.20;4.10;;;;;;;;;;5486059;26;20227;-79
2024/04/13 06:13:09;;;;;;;5.77;4.00;;;;;;;;;;5485375;26;20278;-78
2024/04/13 06:15:40;;;;;;;5.13;3.97;;;;;;;;;;5490100;26;20231;-79
2024/04/13 06:18:06;;;;;;;8.90;4.50;;;;;;;;;;5489873;26;20318;-79
2024/04/13 06:20:38;;;;;;;5.13;3.90;;;;;;;;;;5489713;26;20231;-79
2024/04/13 06:23:04;;;;;;;4.63;3.87;;;;;;;;;;5490404;26;20274;-79
2024/04/13 06:25:33;;;;;;;5.87;3.93;;;;;;;;;;5490063;26;20310;-80
2024/04/13 06:27:59;;;;;;;5.93;3.90;;;;;;;;;;5486520;26;20239;-80
2024/04/13 06:30:28;;;;;;;4.70;4.00;;;;;;;;;;5489547;26;20223;-80
2024/04/13 06:32:54;;;;;;;5.03;3.40;;;;;;;;;;5490128;26;20270;-79
2024/04/13 06:35:23;;;;;;;4.97;3.70;;;;;;;;;;5489676;26;20231;-79
2024/04/13 06:37:52;;;;;;;5.33;3.70;;;;;;;;;;5489982;26;20723;-80
2024/04/13 06:40:24;;;;;;;3.93;3.23;;;;;;;;;;5489963;26;20239;-80
2024/04/13 06:42:50;;;;;;;4.90;3.20;;;;;;;;;;5488942;26;20290;-80
2024/04/13 06:45:19;;;;;;;3.70;3.20;;;;;;;;;;5483635;26;20239;-80
2024/04/13 06:47:46;;;;;;;4.23;3.10;;;;;;;;;;5453031;26;20267;-80
2024/04/13 06:50:15;;;;;;;5.43;2.87;;;;;;;;;;5453166;26;20224;-80
2024/04/13 06:52:42;;;;;;;5.13;3.47;;;;;;;;;;5453198;26;20275;-80
2024/04/13 06:55:13;;;;;;;4.10;2.90;;;;;;;;;;5480175;26;20287;-80
2024/04/13 06:57:39;;;;;;;5.27;3.10;;;;;;;;;;5488416;26;20641;-80
2024/04/13 07:00:09;;;;;;;6.50;3.50;;;;;;;;;;5454920;26;20274;-80
2024/04/13 07:02:35;;;;;;;7.87;3.47;;;;;;;;;;5466957;26;20275;-80
2024/04/13 07:05:04;;;;;;;5.40;3.50;;;;;;;;;;5453253;26;20236;-80
2024/04/13 07:07:30;;;;;;;4.88;3.00;;;;;;;;;;5452810;26;20229;-80
2024/04/13 07:09:59;;;;;;;4.70;3.08;;;;;;;;;;5453108;26;20301;-82
2024/04/13 07:12:29;;;;;;;5.70;3.30;;;;;;;;;;5453057;26;20220;-80
2024/04/13 07:14:58;;;;;;;6.72;3.00;;;;;;;;;;5452567;26;20240;-80
2024/04/13 07:17:24;;;;;;;4.78;3.20;;;;;;;;;;5452999;26;20232;-79
2024/04/13 07:19:53;;;;;;;7.63;3.28;;;;;;;;;;5452833;26;20228;-80
2024/04/13 07:22:20;;;;;;;7.20;3.10;;;;;;;;;;5452929;26;20263;-80
2024/04/13 07:24:49;;;;;;;6.28;3.20;;;;;;;;;;5451486;26;20583;-81
2024/04/13 07:27:15;;;;;;;6.50;3.25;;;;;;;;;;5452790;26;20267;-81
2024/04/13 07:29:47;;;;;;;4.00;3.28;;;;;;;;;;5452609;26;20721;-80
2024/04/13 07:32:13;;;;;;;5.57;3.40;;;;;;;;;;5462899;26;20239;-80
2024/04/13 07:34:42;;;;;;;6.25;3.45;;;;;;;;;;5485282;26;20281;-79
2024/04/13 07:37:08;;;;;;;8.07;3.50;;;;;;;;;;5480383;26;20349;-80
2024/04/13 07:39:37;;;;;;;8.60;3.63;;;;;;;;;;5482833;26;20255;-80
2024/04/13 07:42:04;;;;;;;5.35;3.55;;;;;;;;;;5452299;26;20217;-79
2024/04/13 07:44:33;;;;;;;7.43;3.53;;;;;;;;;;5452324;26;20280;-79
2024/04/13 07:47:02;;;;;;;4.45;3.35;;;;;;;;;;5452446;26;20228;-79
2024/04/13 07:49:31;;;;;;;5.35;3.53;;;;;;;;;;5451941;26;20228;-79
2024/04/13 07:51:59;;;;;;;6.47;3.45;;;;;;;;;;5474724;26;20239;-79
2024/04/13 07:54:28;;;;;;;5.68;3.28;;;;;;;;;;5487811;26;20235;-79
2024/04/13 07:56:54;;;;;;;7.93;4.03;;;;;;;;;;5488151;26;20580;-81
2024/04/13 07:59:23;;;;;;;4.78;3.97;;;;;;;;;;5488158;26;20788;-82
2024/04/13 08:01:49;;;;;;;5.55;3.20;;;;;;;;;;5488651;26;20223;-82
2024/04/13 08:04:21;;;;;;;5.75;3.38;;;;;;;;;;5488228;26;20317;-80
2024/04/13 08:06:47;;;;;;;5.20;3.63;;;;;;;;;;5487194;26;20243;-80
2024/04/13 08:09:16;;;;;;;6.93;3.58;;;;;;;;;;5452716;26;20283;-80
2024/04/13 08:11:42;;;;;;;7.70;4.18;;;;;;;;;;5452570;26;20212;-80
2024/04/13 08:14:11;;;;;;;6.15;3.78;;;;;;;;;;5467478;26;20236;-80
2024/04/13 08:16:37;;;;;;;7.00;4.05;;;;;;;;;;5478739;26;20278;-80
2024/04/13 08:19:06;;;;;;;5.95;4.50;;;;;;;;;;5484229;26;20235;-80
2024/04/13 08:21:35;;;;;;;6.60;4.32;;;;;;;;;;5488170;26;20223;-80
2024/04/13 08:24:04;;;;;;;6.10;3.92;;;;;;;;;;5484941;26;20230;-80
2024/04/13 08:26:30;;;;;;;4.97;4.10;;;;;;;;;;5487537;26;20339;-79
2024/04/13 08:28:59;;;;;;;6.68;4.45;;;;;;;;;;5488160;26;20227;-79
2024/04/13 08:31:25;;;;;;;7.93;4.35;;;;;;;;;;5487907;26;20298;-80
2024/04/13 08:33:54;;;;;;;5.57;4.20;;;;;;;;;;5488328;26;20231;-79
2024/04/13 08:36:20;;;;;;;6.80;4.75;;;;;;;;;;5487763;26;20220;-80
2024/04/13 08:38:51;;;;;;;6.47;4.53;;;;;;;;;;5487593;26;20231;-81
2024/04/13 08:41:20;;;;;;;6.75;4.10;;;;;;;;;;5483019;26;20239;-79
2024/04/13 08:43:49;;;;;;;7.25;4.70;;;;;;;;;;5458299;26;20756;-81
2024/04/13 08:46:15;;;;;;;9.57;5.07;;;;;;;;;;5487473;26;20235;-81
2024/04/13 08:48:44;;;;;;;5.85;4.95;;;;;;;;;;5488438;26;20227;-81
2024/04/13 08:51:12;;;;;;;6.15;4.72;;;;;;;;;;5488201;26;20223;-80
2024/04/13 08:53:42;;;;;;;7.45;4.90;;;;;;;;;;5485980;26;20255;-80
2024/04/13 08:56:11;;;;;;;8.98;5.82;;;;;;;;;;5487831;26;20219;-80
2024/04/13 08:58:41;;;;;;;5.78;5.05;;;;;;;;;;5487321;26;20231;-80
2024/04/13 09:01:11;;;;;;;8.23;5.32;;;;;;;;;;5487287;26;20763;-80
2024/04/13 09:03:41;;;;;;;5.68;5.03;;;;;;;;;;5487593;26;20227;-82
2024/04/13 09:06:08;;;;;;;8.38;6.32;;;;;;;;;;5472173;26;20791;-82
2024/04/13 09:08:37;;;;;;;7.90;5.90;;;;;;;;;;5460755;26;20223;-80
2024/04/13 09:11:04;;;;;;;9.10;6.22;;;;;;;;;;5477715;26;20309;-81
2024/04/13 09:13:35;;;;;;;8.43;6.78;;;;;;;;;;5460329;26;20277;-81
2024/04/13 09:16:03;;;;;;;10.05;7.95;;;;;;;;;;5487406;26;20266;-82
2024/04/13 09:18:32;;;;;;;10.57;7.70;;;;;;;;;;5469194;26;20235;-80
2024/04/13 09:21:01;;;;;;;8.32;7.47;;;;;;;;;;5484879;26;20298;-80
2024/04/13 09:23:31;;;;;;;9.40;7.60;;;;;;;;;;5463039;26;20735;-82
2024/04/13 09:26:01;;;;;;;9.48;6.80;;;;;;;;;;5480173;26;20235;-81
2024/04/13 09:28:43;;;;;;;7.90;6.25;;;;;;;;;;5484099;26;20239;-80
2024/04/13 09:31:09;;;;;;;6.63;5.90;;;;;;;;;;5457295;26;20780;-82
2024/04/13 09:33:39;;;;;;;6.95;5.60;;;;;;;;;;5483607;26;20739;-80
2024/04/13 09:36:05;;;;;;;6.53;5.00;;;;;;;;;;5485703;26;20231;-81
2024/04/13 09:38:34;;;;;;;8.98;5.80;;;;;;;;;;5473928;26;20294;-80
2024/04/13 09:41:01;;;;;;;5.63;4.68;;;;;;;;;;5486802;26;20732;-81
2024/04/13 09:43:30;;;;;;;5.40;3.72;;;;;;;;;;5487042;26;20231;-82
2024/04/13 09:46:01;;;;;;;4.07;3.42;;;;;;;;;;5486891;26;20235;-81
2024/04/13 09:48:30;;;;;;;6.90;5.03;;;;;;;;;;5481601;26;20269;-81
2024/04/13 09:50:57;;;;;;;5.78;4.30;;;;;;;;;;5484780;26;20234;-80
2024/04/13 09:53:26;;;;;;;5.30;3.40;;;;;;;;;;5485248;26;20246;-81
2024/04/13 09:55:53;;;;;;;4.05;3.28;;;;;;;;;;5486111;26;20227;-82
2024/04/13 09:58:21;;;;;;;5.75;3.75;;;;;;;;;;5485393;26;20239;-81
2024/04/13 10:00:48;;;;;;;4.93;3.80;;;;;;;;;;5485283;26;20239;-82
2024/04/13 10:03:20;;;;;;;5.35;3.53;;;;;;;;;;5485492;26;20235;-81
2024/04/13 10:05:46;;;;;;;4.63;3.10;;;;;;;;;;5484644;26;20295;-81
2024/04/13 10:08:16;;;;;;;3.20;2.60;;;;;;;;;;5485621;26;20275;-81
2024/04/13 10:10:43;;;;;;;4.70;3.70;;;;;;;;;;5485711;26;20227;-82
2024/04/13 10:13:13;;;;;;;7.22;3.72;;;;;;;;;;5485894;26;20755;-81
2024/04/13 10:15:40;;;;;;;5.15;3.90;;;;;;;;;;5482565;26;20243;-80
2024/04/13 10:18:09;;;;;;;5.35;3.60;;;;;;;;;;5474588;26;20278;-80
2024/04/13 10:20:38;;;;;;;6.68;4.40;;;;;;;;;;5475574;26;20864;-80
2024/04/13 10:23:11;;;;;;;5.18;3.67;;;;;;;;;;5473296;26;20234;-83
2024/04/13 10:25:39;;;;;;;6.00;3.55;;;;;;;;;;5485839;26;20630;-86
2024/04/13 10:28:08;;;;;;;7.97;7.15;;;;;;;;;;5484647;26;20258;-83
2024/04/13 10:30:42;;;;;;;6.28;3.50;;;;;;;;;;5481838;26;20247;-83
2024/04/13 10:33:19;;;;;;;4.75;3.40;;;;;;;;;;5497743;26;20454;-82
2024/04/13 10:35:59;;;;;;;6.18;3.60;;;;;;;;;;5470723;26;20238;-83
2024/04/13 10:38:28;;;;;;;6.28;3.30;;;;;;;;;;5469895;26;20301;-81
2024/04/13 10:40:54;;;;;;;5.85;3.15;;;;;;;;;;5486033;26;20251;-81
2024/04/13 10:43:24;;;;;;;3.40;2.78;;;;;;;;;;5483122;26;20247;-81
2024/04/13 10:45:51;;;;;;;3.85;2.97;;;;;;;;;;5480662;26;20274;-79
2024/04/13 10:48:21;;;;;;;4.45;2.65;;;;;;;;;;5479246;26;20735;-79
2024/04/13 10:50:48;;;;;;;3.00;2.70;;;;;;;;;;5474864;26;20845;-79
2024/04/13 10:53:19;;;;;;;3.47;2.38;;;;;;;;;;5485106;26;20274;-79
2024/04/13 10:55:46;;;;;;;4.85;2.40;;;;;;;;;;5484412;26;20235;-80
2024/04/13 10:58:15;;;;;;;4.53;2.40;;;;;;;;;;5482572;26;20278;-79
2024/04/13 11:00:44;;;;;;;4.20;2.03;;;;;;;;;;5464649;26;20224;-78
2024/04/13 11:03:13;;;;;;;2.35;2.10;;;;;;;;;;5489278;26;20227;-79
2024/04/13 11:05:39;;;;;;;4.65;4.18;;;;;;;;;;5490094;26;20270;-79
2024/04/13 11:08:08;;;;;;;8.55;7.55;;;;;;;;;;5484622;26;20235;-79
2024/04/13 11:10:38;;;;;;;4.45;3.40;;;;;;;;;;5488239;26;20282;-80
2024/04/13 11:13:08;;;;;;;5.35;3.85;;;;;;;;;;5488795;26;20243;-79
2024/04/13 11:15:34;;;;;;;3.80;3.28;;;;;;;;;;5488778;26;20223;-80
2024/04/13 11:18:04;;;;;;;3.60;2.55;;;;;;;;;;5488885;26;20238;-79
2024/04/13 11:20:31;;;;;;;6.05;4.32;;;;;;;;;;5506182;26;20301;-79
2024/04/13 11:23:00;;;;;;;10.02;8.52;;;;;;;;;;5521008;25;20276;-80
2024/04/13 11:25:26;;;;;;;5.65;5.03;;;;;;;;;;5519022;25;20284;-79
2024/04/13 11:27:58;;;;;;;4.22;2.90;;;;;;;;;;5519647;25;20583;-80
2024/04/13 11:30:25;;;;;;;4.65;2.92;;;;;;;;;;5514950;26;20239;-79
2024/04/13 11:32:54;;;;;;;6.28;3.30;;;;;;;;;;5489137;26;20282;-80
2024/04/13 11:35:21;;;;;;;2.90;2.20;;;;;;;;;;5488653;26;20321;-79
2024/04/13 11:37:56;;;;;;;3.60;2.10;;;;;;;;;;5488498;26;20271;-79
2024/04/13 11:40:23;;;;;;;2.38;2.10;;;;;;;;;;5488969;26;20654;-79
2024/04/13 11:42:51;;;;;;;3.88;2.10;;;;;;;;;;5488422;26;20359;-80
2024/04/13 11:45:20;;;;;;;4.40;2.35;;;;;;;;;;5488651;26;20223;-79
2024/04/13 11:47:49;;;;;;;5.30;2.70;;;;;;;;;;5487760;26;20270;-80
2024/04/13 11:50:15;;;;;;;4.10;2.40;;;;;;;;;;5509130;26;20284;-79
2024/04/13 11:52:45;;;;;;;3.45;2.33;;;;;;;;;;5456109;26;20341;-79
2024/04/13 11:55:11;;;;;;;3.58;2.30;;;;;;;;;;5499010;25;20775;-79
2024/04/13 11:57:47;;;;;;;3.95;1.80;;;;;;;;;;5482382;26;20227;-82
2024/04/13 12:00:14;;;;;;;2.80;1.83;;;;;;;;;;5477396;26;20277;-80
2024/04/13 12:02:46;;;;;;;3.60;1.95;;;;;;;;;;5477037;26;20617;-80
2024/04/13 12:05:13;;;;;;;2.40;1.75;;;;;;;;;;5478825;26;20243;-80
2024/04/13 12:07:41;;;;;;;2.38;2.03;;;;;;;;;;5484211;26;20231;-80
2024/04/13 12:10:08;;;;;;;3.58;2.05;;;;;;;;;;5488251;26;20232;-82
2024/04/13 12:12:36;;;;;;;3.60;1.40;;;;;;;;;;5488915;26;20247;-82
2024/04/13 12:15:03;;;;;;;2.75;1.83;;;;;;;;;;5465994;26;20615;-82
2024/04/13 12:17:32;;;;;;;3.00;1.60;;;;;;;;;;5468861;26;20237;-82
2024/04/13 12:20:01;;;;;;;2.90;1.70;;;;;;;;;;5481126;26;20705;-82
2024/04/13 12:22:30;;;;;;;3.45;1.63;;;;;;;;;;5485780;26;20780;-84
2024/04/13 12:24:56;;;;;;;3.42;1.42;;;;;;;;;;5478420;26;20254;-81
2024/04/13 12:27:25;;;;;;;3.10;1.40;;;;;;;;;;5480943;26;20235;-81
2024/04/13 12:29:52;;;;;;;2.25;1.35;;;;;;;;;;5488589;26;20227;-82
2024/04/13 12:32:21;;;;;;;2.15;1.45;;;;;;;;;;5488824;26;20231;-81
2024/04/13 12:34:47;;;;;;;2.85;1.38;;;;;;;;;;5489689;26;20289;-82
2024/04/13 12:37:19;;;;;;;2.50;1.10;;;;;;;;;;5472382;26;20343;-81
2024/04/13 12:39:45;;;;;;;1.88;1.10;;;;;;;;;;5489813;26;21076;-81
2024/04/13 12:42:14;;;;;;;2.47;1.20;;;;;;;;;;5488121;26;20235;-82
2024/04/13 12:44:40;;;;;;;1.98;1.40;;;;;;;;;;5477764;26;20243;-82
2024/04/13 12:47:14;;;;;;;1.73;1.25;;;;;;;;;;5484461;26;20231;-81
2024/04/13 12:49:40;;;;;;;1.80;1.20;;;;;;;;;;5471939;26;20286;-82
2024/04/13 12:52:09;;;;;;;3.00;1.48;;;;;;;;;;5482564;26;20239;-81
2024/04/13 12:54:40;;;;;;;2.33;1.40;;;;;;;;;;5487732;26;20235;-84
2024/04/13 12:57:09;;;;;;;2.70;1.48;;;;;;;;;;5489174;26;20227;-85
2024/04/13 12:59:35;;;;;;;1.80;1.38;;;;;;;;;;5467605;26;20237;-85
2024/04/13 13:02:04;;;;;;;1.30;1.20;;;;;;;;;;5451792;26;20741;-86
2024/04/13 13:04:30;;;;;;;1.92;1.55;;;;;;;;;;5452409;26;20347;-86
2024/04/13 13:06:59;;;;;;;3.47;1.60;;;;;;;;;;5452633;26;20228;-86
2024/04/13 13:09:25;;;;;;;2.30;1.52;;;;;;;;;;5457007;26;20231;-84
2024/04/13 13:11:56;;;;;;;3.80;1.48;;;;;;;;;;5488171;26;20277;-85
2024/04/13 13:14:24;;;;;;;2.47;1.40;;;;;;;;;;5486698;26;20596;-85
2024/04/13 13:16:53;;;;;;;2.97;1.55;;;;;;;;;;5487929;26;20227;-85
2024/04/13 13:19:19;;;;;;;2.20;1.40;;;;;;;;;;5488228;26;20266;-85
2024/04/13 13:21:49;;;;;;;3.00;1.73;;;;;;;;;;5487835;26;20223;-85
2024/04/13 13:24:15;;;;;;;2.13;1.48;;;;;;;;;;5458766;26;20286;-83
2024/04/13 13:26:44;;;;;;;2.33;1.42;;;;;;;;;;5452358;26;20239;-83
2024/04/13 13:29:13;;;;;;;1.92;1.20;;;;;;;;;;5484976;26;20270;-85
2024/04/13 13:31:42;;;;;;;1.67;1.40;;;;;;;;;;5492100;26;20228;-86
2024/04/13 13:34:09;;;;;;;1.55;1.38;;;;;;;;;;5488837;26;20265;-85
2024/04/13 13:36:38;;;;;;;8.02;1.73;;;;;;;;;;5487502;26;20280;-85
2024/04/13 13:39:04;;;;;;;4.60;1.55;;;;;;;;;;5485497;26;20999;-85
2024/04/13 13:41:33;;;;;;;2.10;1.35;;;;;;;;;;5487070;26;20239;-84
2024/04/13 13:44:00;;;;;;;1.98;1.55;;;;;;;;;;5487365;26;20235;-85
2024/04/13 13:46:32;;;;;;;2.47;1.50;;;;;;;;;;5486210;26;20269;-84
2024/04/13 13:48:58;;;;;;;4.40;1.40;;;;;;;;;;5487068;26;20270;-84
2024/04/13 13:51:28;;;;;;;2.88;1.40;;;;;;;;;;5487338;26;20239;-85
2024/04/13 13:53:55;;;;;;;2.38;1.50;;;;;;;;;;5487011;26;21091;-85
2024/04/13 13:56:23;;;;;;;1.73;1.38;;;;;;;;;;5487000;26;20269;-85
2024/04/13 13:58:50;;;;;;;2.45;1.70;;;;;;;;;;5485791;26;20273;-84
2024/04/13 14:01:20;;;;;;;1.80;1.15;;;;;;;;;;5479507;26;20224;-84
2024/04/13 14:03:48;;;;;;;1.50;1.35;;;;;;;;;;5456975;26;20228;-85
2024/04/13 14:06:17;;;;;;;1.90;1.58;;;;;;;;;;5451154;26;20771;-85
2024/04/13 14:08:44;;;;;;;2.08;1.50;;;;;;;;;;5450908;26;20596;-85
2024/04/13 14:11:13;;;;;;;2.00;1.27;;;;;;;;;;5477966;26;20247;-84
2024/04/13 14:13:39;;;;;;;1.75;1.55;;;;;;;;;;5475250;26;20567;-86
2024/04/13 14:16:09;;;;;;;3.25;2.05;;;;;;;;;;5469169;26;20235;-85
2024/04/13 14:18:35;;;;;;;4.05;1.85;;;;;;;;;;5483758;26;20301;-82
2024/04/13 14:21:07;;;;;;;1.75;1.55;;;;;;;;;;5485978;26;20238;-83
2024/04/13 14:23:33;;;;;;;2.47;1.40;;;;;;;;;;5466518;26;20233;-84
2024/04/13 14:26:02;;;;;;;3.53;1.90;;;;;;;;;;5479736;26;20261;-85
2024/04/13 14:28:29;;;;;;;2.58;1.40;;;;;;;;;;5486407;26;20257;-85
2024/04/13 14:30:57;;;;;;;2.58;1.40;;;;;;;;;;5486192;26;21045;-84
2024/04/13 14:33:24;;;;;;;2.50;1.40;;;;;;;;;;5486343;26;20277;-84
2024/04/13 14:35:55;;;;;;;1.60;1.50;;;;;;;;;;5489048;26;20278;-84
2024/04/13 14:38:24;;;;;;;1.83;1.42;;;;;;;;;;5476201;26;20785;-83
2024/04/13 14:40:52;;;;;;;1.58;1.48;;;;;;;;;;5479428;26;20281;-84
2024/04/13 14:43:19;;;;;;;1.70;1.50;;;;;;;;;;5466475;26;20721;-84
2024/04/13 14:45:48;;;;;;;1.85;1.50;;;;;;;;;;5482579;26;21514;-84
2024/04/13 14:48:14;;;;;;;3.97;1.60;;;;;;;;;;5489303;26;20274;-85
2024/04/13 14:50:43;;;;;;;1.75;1.33;;;;;;;;;;5485686;26;20247;-84